createdAt,value
2019-03-25T00:00:01.972Z,65.37
2019-03-25T00:02:36.547Z,66.87
2019-03-25T00:05:09.258Z,68.03
2019-03-25T00:07:42.211Z,67.70
2019-03-25T00:10:14.604Z,68.33
2019-03-25T00:12:47.157Z,71.57
2019-03-25T00:15:20.481Z,69.20
2019-03-25T00:17:53.081Z,65.10
2019-03-25T00:20:25.904Z,67.10
2019-03-25T00:22:58.225Z,68.20
2019-03-25T00:25:30.928Z,68.23
2019-03-25T00:28:03.486Z,66.43
2019-03-25T00:30:35.403Z,66.27
2019-03-25T00:33:10.073Z,70.13
2019-03-25T00:35:44.132Z,66.43
2019-03-25T00:38:16.560Z,65.93
2019-03-25T00:40:50.261Z,68.27
2019-03-25T00:43:23.394Z,69.27
2019-03-25T00:45:57.469Z,67.80
2019-03-25T00:48:29.386Z,71.47
2019-03-25T00:51:02.499Z,68.00
2019-03-25T00:53:35.622Z,68.23
2019-03-25T00:56:07.799Z,68.30
2019-03-25T00:58:41.519Z,69.47
2019-03-25T01:01:16.039Z,69.20
2019-03-25T01:03:47.889Z,73.03
2019-03-25T01:06:20.355Z,71.03
2019-03-25T01:08:53.349Z,71.70
2019-03-25T01:11:26.518Z,72.07
2019-03-25T01:13:58.413Z,72.60
2019-03-25T01:16:31.378Z,73.92
2019-03-25T01:19:05.482Z,68.27
2019-03-25T01:21:38.477Z,74.70
2019-03-25T01:24:11.559Z,75.77
2019-03-25T01:26:44.607Z,69.93
2019-03-25T01:29:16.608Z,72.50
2019-03-25T01:31:49.398Z,73.40
2019-03-25T01:34:22.615Z,77.20
2019-03-25T01:36:56.607Z,73.23
2019-03-25T01:39:28.500Z,71.97
2019-03-25T01:42:02.640Z,69.27
2019-03-25T01:44:35.592Z,70.50
2019-03-25T01:47:08.520Z,73.72
2019-03-25T01:49:41.971Z,69.40
2019-03-25T01:52:15.700Z,69.53
2019-03-25T01:54:49.663Z,70.40
2019-03-25T01:57:22.580Z,70.00
2019-03-25T01:59:57.154Z,69.73
2019-03-25T02:02:31.689Z,69.10
2019-03-25T02:05:05.970Z,70.13
2019-03-25T02:07:40.625Z,70.60
2019-03-25T02:10:14.212Z,69.97
2019-03-25T02:12:46.741Z,68.50
2019-03-25T02:15:19.807Z,66.72
2019-03-25T02:17:52.689Z,64.50
2019-03-25T02:20:26.988Z,65.80
2019-03-25T02:23:00.931Z,68.37
2019-03-25T02:25:34.816Z,66.60
2019-03-25T02:28:08.739Z,65.57
2019-03-25T02:30:40.637Z,62.60
2019-03-25T02:33:13.896Z,64.80
2019-03-25T02:35:46.676Z,66.10
2019-03-25T02:38:20.757Z,64.97
2019-03-25T02:40:52.780Z,62.40
2019-03-25T02:43:25.725Z,60.17
2019-03-25T02:45:59.833Z,59.47
2019-03-25T02:48:32.858Z,62.60
2019-03-25T02:51:07.260Z,59.93
2019-03-25T02:53:40.793Z,64.23
2019-03-25T02:56:13.742Z,63.97
2019-03-25T02:58:47.725Z,66.33
2019-03-25T03:01:20.007Z,64.83
2019-03-25T03:03:53.938Z,61.87
2019-03-25T03:06:25.760Z,64.80
2019-03-25T03:08:57.853Z,67.87
2019-03-25T03:11:31.968Z,64.03
2019-03-25T03:14:05.861Z,63.87
2019-03-25T03:16:37.798Z,63.87
2019-03-25T03:19:11.117Z,62.53
2019-03-25T03:21:44.139Z,67.60
2019-03-25T03:24:17.181Z,68.10
2019-03-25T03:26:51.111Z,63.83
2019-03-25T03:29:22.986Z,65.90
2019-03-25T03:31:55.855Z,63.57
2019-03-25T03:34:27.662Z,63.97
2019-03-25T03:37:03.303Z,66.83
2019-03-25T03:39:35.573Z,65.93
2019-03-25T03:42:09.493Z,67.23
2019-03-25T03:44:43.630Z,66.55
2019-03-25T03:47:17.231Z,62.80
2019-03-25T03:49:51.573Z,63.80
2019-03-25T03:52:26.431Z,64.83
2019-03-25T03:55:00.014Z,62.33
2019-03-25T03:57:33.281Z,68.80
2019-03-25T04:00:07.269Z,63.17
2019-03-25T04:02:41.349Z,66.63
2019-03-25T04:05:14.449Z,67.17
2019-03-25T04:07:48.519Z,67.20
2019-03-25T04:10:20.611Z,67.10
2019-03-25T04:12:53.626Z,66.30
2019-03-25T04:15:30.808Z,67.60
2019-03-25T04:18:03.696Z,68.72
2019-03-25T04:20:38.530Z,64.27
2019-03-25T04:23:14.375Z,64.62
2019-03-25T04:25:47.575Z,67.97
2019-03-25T04:28:20.704Z,65.90
2019-03-25T04:30:54.510Z,64.83
2019-03-25T04:33:28.670Z,67.47
2019-03-25T04:36:02.720Z,67.00
2019-03-25T04:38:35.663Z,64.77
2019-03-25T04:41:09.888Z,68.70
2019-03-25T04:43:47.382Z,65.47
2019-03-25T04:46:23.683Z,64.80
2019-03-25T04:48:56.936Z,66.60
2019-03-25T04:51:34.096Z,64.43
2019-03-25T04:54:16.017Z,64.77
2019-03-25T04:56:49.620Z,67.33
2019-03-25T04:59:23.705Z,65.83
2019-03-25T05:01:56.890Z,64.60
2019-03-25T05:04:29.881Z,64.77
2019-03-25T05:07:04.235Z,64.20
2019-03-25T05:09:46.243Z,63.73
2019-03-25T05:12:23.580Z,62.10
2019-03-25T05:14:59.011Z,67.27
2019-03-25T05:17:37.675Z,65.90
2019-03-25T05:20:17.936Z,66.00
2019-03-25T05:22:58.720Z,66.87
2019-03-25T05:25:35.665Z,62.20
2019-03-25T05:28:12.339Z,64.67
2019-03-25T05:30:52.884Z,63.07
2019-03-25T05:33:28.822Z,62.87
2019-03-25T05:36:04.265Z,64.17
2019-03-25T05:38:39.851Z,64.13
2019-03-25T05:41:14.268Z,64.90
2019-03-25T05:44:01.387Z,59.83
2019-03-25T05:46:35.314Z,62.73
2019-03-25T05:49:08.889Z,61.63
2019-03-25T05:51:46.269Z,66.57
2019-03-25T05:54:24.933Z,66.03
2019-03-25T05:57:03.138Z,66.20
2019-03-25T05:59:36.649Z,64.53
2019-03-25T06:02:10.710Z,62.93
2019-03-25T06:04:51.627Z,63.87
2019-03-25T06:07:35.757Z,65.65
2019-03-25T06:10:11.621Z,62.43
2019-03-25T06:12:50.640Z,62.87
2019-03-25T06:15:34.719Z,62.97
2019-03-25T06:18:21.992Z,64.13
2019-03-25T06:20:58.641Z,61.90
2019-03-25T06:23:33.708Z,63.43
2019-03-25T06:26:13.171Z,61.55
2019-03-25T06:28:48.508Z,66.80
2019-03-25T06:31:24.654Z,63.63
2019-03-25T06:33:58.237Z,63.90
2019-03-25T06:36:36.945Z,64.10
2019-03-25T06:39:13.802Z,62.23
2019-03-25T06:41:47.306Z,66.13
2019-03-25T06:44:20.417Z,64.40
2019-03-25T06:46:55.672Z,61.17
2019-03-25T06:49:31.545Z,62.67
2019-03-25T06:52:07.922Z,60.87
2019-03-25T06:54:45.099Z,62.97
2019-03-25T06:57:25.144Z,65.43
2019-03-25T06:59:53.716Z,67.80
2019-03-25T07:02:30.232Z,63.73
2019-03-25T07:05:03.593Z,64.10
2019-03-25T07:07:37.462Z,62.13
2019-03-25T07:10:13.423Z,60.13
2019-03-25T07:12:50.682Z,61.63
2019-03-25T07:15:27.209Z,60.97
2019-03-25T07:17:59.228Z,61.80
2019-03-25T07:20:32.306Z,61.37
2019-03-25T07:23:06.865Z,64.00
2019-03-25T07:25:44.103Z,67.13
2019-03-25T07:28:16.596Z,62.80
2019-03-25T07:30:51.489Z,65.47
2019-03-25T07:33:36.104Z,64.10
2019-03-25T07:36:07.954Z,64.13
2019-03-25T07:38:42.952Z,60.30
2019-03-25T07:41:17.186Z,62.67
2019-03-25T07:43:53.449Z,62.95
2019-03-25T07:46:26.657Z,63.27
2019-03-25T07:49:02.977Z,64.42
2019-03-25T07:51:38.444Z,63.67
2019-03-25T07:54:10.684Z,61.67
2019-03-25T07:56:47.259Z,59.90
2019-03-25T07:59:21.565Z,60.90
2019-03-25T08:01:55.624Z,57.00
2019-03-25T08:04:29.522Z,55.63
2019-03-25T08:07:05.472Z,57.57
2019-03-25T08:09:39.295Z,60.40
2019-03-25T08:12:13.585Z,62.27
2019-03-25T08:14:49.705Z,58.57
2019-03-25T08:17:25.512Z,62.55
2019-03-25T08:19:59.630Z,63.20
2019-03-25T08:22:34.251Z,63.03
2019-03-25T08:25:08.977Z,64.20
2019-03-25T08:27:44.913Z,65.43
2019-03-25T08:30:20.373Z,60.80
2019-03-25T08:32:56.243Z,55.67
2019-03-25T08:35:33.218Z,51.77
2019-03-25T08:38:07.519Z,52.00
2019-03-25T08:40:43.109Z,47.63
2019-03-25T08:43:19.571Z,50.83
2019-03-25T08:45:56.065Z,49.80
2019-03-25T08:48:30.978Z,49.03
2019-03-25T08:51:03.728Z,52.27
2019-03-25T08:53:36.656Z,49.17
2019-03-25T08:56:10.863Z,50.70
2019-03-25T08:58:46.531Z,48.10
2019-03-25T09:01:21.168Z,48.73
2019-03-25T09:03:55.805Z,48.17
2019-03-25T09:06:31.276Z,45.27
2019-03-25T09:09:06.706Z,48.80
2019-03-25T09:11:43.791Z,44.03
2019-03-25T09:14:17.242Z,44.07
2019-03-25T09:16:51.996Z,39.07
2019-03-25T09:19:27.744Z,43.10
2019-03-25T09:22:01.168Z,42.70
2019-03-25T09:24:37.684Z,43.03
2019-03-25T09:27:12.328Z,42.90
2019-03-25T09:29:48.886Z,40.30
2019-03-25T09:32:24.073Z,41.70
2019-03-25T09:34:59.158Z,39.05
2019-03-25T09:37:31.778Z,37.50
2019-03-25T09:40:08.817Z,40.80
2019-03-25T09:42:42.064Z,38.67
2019-03-25T09:45:18.839Z,38.17
2019-03-25T09:47:53.367Z,37.03
2019-03-25T09:50:27.992Z,39.77
2019-03-25T09:53:02.200Z,38.20
2019-03-25T09:55:43.475Z,36.97
2019-03-25T09:58:19.251Z,38.33
2019-03-25T10:00:52.235Z,37.73
2019-03-25T10:03:26.240Z,36.37
2019-03-25T10:06:01.799Z,37.90
2019-03-25T10:08:35.847Z,36.27
2019-03-25T10:11:09.068Z,36.20
2019-03-25T10:13:43.821Z,35.80
2019-03-25T10:16:19.099Z,36.93
2019-03-25T10:18:53.588Z,35.87
2019-03-25T10:21:30.528Z,30.70
2019-03-25T10:24:03.206Z,28.20
2019-03-25T10:26:39.434Z,25.93
2019-03-25T10:29:15.049Z,22.62
2019-03-25T10:31:49.647Z,22.07
2019-03-25T10:34:23.860Z,22.60
2019-03-25T10:37:00.419Z,22.90
2019-03-25T10:39:38.369Z,21.87
2019-03-25T10:42:13.448Z,22.63
2019-03-25T10:44:46.213Z,18.77
2019-03-25T10:47:20.644Z,18.90
2019-03-25T10:49:55.959Z,18.50
2019-03-25T10:52:30.736Z,15.93
2019-03-25T10:55:03.621Z,15.40
2019-03-25T10:57:40.278Z,14.60
2019-03-25T11:00:13.618Z,14.10
2019-03-25T11:02:47.449Z,13.53
2019-03-25T11:05:20.434Z,14.90
2019-03-25T11:07:56.662Z,13.60
2019-03-25T11:10:30.322Z,13.83
2019-03-25T11:13:05.271Z,11.47
2019-03-25T11:15:42.292Z,11.97
2019-03-25T11:18:15.926Z,11.97
2019-03-25T11:20:50.874Z,12.13
2019-03-25T11:23:25.398Z,11.07
2019-03-25T11:25:58.249Z,11.97
2019-03-25T11:28:39.363Z,10.43
2019-03-25T11:31:12.634Z,10.53
2019-03-25T11:33:49.624Z,10.00
2019-03-25T11:36:23.590Z,9.10
2019-03-25T11:38:57.536Z,9.07
2019-03-25T11:41:34.796Z,7.50
2019-03-25T11:44:10.390Z,7.03
2019-03-25T11:46:47.655Z,6.20
2019-03-25T11:49:25.500Z,6.50
2019-03-25T11:52:02.637Z,8.10
2019-03-25T11:54:34.491Z,7.13
2019-03-25T11:57:08.109Z,8.07
2019-03-25T11:59:42.934Z,6.10
2019-03-25T12:02:17.713Z,8.13
2019-03-25T12:04:52.813Z,9.03
2019-03-25T12:07:26.718Z,8.20
2019-03-25T12:10:01.133Z,7.00
2019-03-25T12:12:35.811Z,6.73
2019-03-25T12:15:09.718Z,7.22
2019-03-25T12:17:44.127Z,5.23
2019-03-25T12:20:18.580Z,4.90
2019-03-25T12:22:53.080Z,4.90
2019-03-25T12:25:26.759Z,5.50
2019-03-25T12:28:01.258Z,4.90
2019-03-25T12:30:35.795Z,5.23
2019-03-25T12:33:09.698Z,5.37
2019-03-25T12:35:41.921Z,5.50
2019-03-25T12:38:15.165Z,5.30
2019-03-25T12:40:48.217Z,5.97
2019-03-25T12:43:22.636Z,4.97
2019-03-25T12:45:56.868Z,4.43
2019-03-25T12:48:31.421Z,5.23
2019-03-25T12:51:08.127Z,5.50
2019-03-25T12:53:48.338Z,6.00
2019-03-25T12:56:22.837Z,4.93
2019-03-25T12:58:55.766Z,5.30
2019-03-25T13:01:29.185Z,5.07
2019-03-25T13:04:05.647Z,7.00
2019-03-25T13:06:41.915Z,4.90
2019-03-25T13:09:16.529Z,5.77
2019-03-25T13:11:49.152Z,5.67
2019-03-25T13:14:23.935Z,6.03
2019-03-25T13:16:57.956Z,3.73
2019-03-25T13:19:31.941Z,4.00
2019-03-25T13:22:06.364Z,4.20
2019-03-25T13:24:52.594Z,3.70
2019-03-25T13:27:27.805Z,3.83
2019-03-25T13:30:00.146Z,3.67
2019-03-25T13:32:35.099Z,4.13
2019-03-25T13:35:09.771Z,4.10
2019-03-25T13:37:47.130Z,3.90
2019-03-25T13:40:22.245Z,3.55
2019-03-25T13:43:00.880Z,3.60
2019-03-25T13:45:35.242Z,3.12
2019-03-25T13:48:07.195Z,2.90
2019-03-25T13:50:42.905Z,3.20
2019-03-25T13:53:16.706Z,3.30
2019-03-25T13:55:49.371Z,2.93
2019-03-25T13:58:25.752Z,3.30
2019-03-25T14:01:00.419Z,2.83
2019-03-25T14:03:36.539Z,2.77
2019-03-25T14:06:13.430Z,2.80
2019-03-25T14:08:48.233Z,2.75
2019-03-25T14:11:22.623Z,2.40
2019-03-25T14:13:57.195Z,2.90
2019-03-25T14:16:31.533Z,2.60
2019-03-25T14:19:13.000Z,3.90
2019-03-25T14:21:45.609Z,3.87
2019-03-25T14:24:21.633Z,3.60
2019-03-25T14:26:55.217Z,3.80
2019-03-25T14:29:27.286Z,3.33
2019-03-25T14:32:00.288Z,3.47
2019-03-25T14:34:44.217Z,2.80
2019-03-25T14:37:09.786Z,2.50
2019-03-25T14:39:46.204Z,3.80
2019-03-25T14:42:18.191Z,3.10
2019-03-25T14:44:51.420Z,3.63
2019-03-25T14:47:25.093Z,3.22
2019-03-25T14:49:57.836Z,3.70
2019-03-25T14:52:30.545Z,3.10
2019-03-25T14:55:04.482Z,2.47
2019-03-25T14:57:37.548Z,3.40
2019-03-25T15:00:24.705Z,3.60
2019-03-25T15:02:50.457Z,3.60
2019-03-25T15:05:25.459Z,3.00
2019-03-25T15:07:59.647Z,3.30
2019-03-25T15:10:36.974Z,4.00
2019-03-25T15:13:12.283Z,3.90
2019-03-25T15:15:48.601Z,3.62
2019-03-25T15:18:32.617Z,3.93
2019-03-25T15:21:15.800Z,2.97
2019-03-25T15:23:48.543Z,3.10
2019-03-25T15:26:21.904Z,2.23
2019-03-25T15:28:54.491Z,2.63
2019-03-25T15:31:30.300Z,2.50
2019-03-25T15:34:03.862Z,3.00
2019-03-25T15:36:37.494Z,3.20
2019-03-25T15:39:09.966Z,2.67
2019-03-25T15:41:43.637Z,3.50
2019-03-25T15:44:18.218Z,3.43
2019-03-25T15:46:55.873Z,4.50
2019-03-25T15:49:29.196Z,3.17
2019-03-25T15:52:05.749Z,3.87
2019-03-25T15:54:40.330Z,3.60
2019-03-25T15:57:14.561Z,4.10
2019-03-25T15:59:48.619Z,5.10
2019-03-25T16:02:23.486Z,3.00
2019-03-25T16:04:59.148Z,3.60
2019-03-25T16:07:33.760Z,3.03
2019-03-25T16:10:08.299Z,2.50
2019-03-25T16:12:42.733Z,2.40
2019-03-25T16:15:16.479Z,3.07
2019-03-25T16:17:50.038Z,3.23
2019-03-25T16:20:21.914Z,2.90
2019-03-25T16:22:54.725Z,2.40
2019-03-25T16:25:28.951Z,2.90
2019-03-25T16:28:02.213Z,2.03
2019-03-25T16:30:35.885Z,1.87
2019-03-25T16:33:14.549Z,2.02
2019-03-25T16:35:48.605Z,2.20
2019-03-25T16:38:23.632Z,2.00
2019-03-25T16:40:59.450Z,2.70
2019-03-25T16:43:32.857Z,2.30
2019-03-25T16:46:05.062Z,3.20
2019-03-25T16:48:39.911Z,3.17
2019-03-25T16:51:12.779Z,3.27
2019-03-25T16:53:45.041Z,3.20
2019-03-25T16:56:18.027Z,3.67
2019-03-25T16:58:51.821Z,3.10
2019-03-25T17:01:23.983Z,3.20
2019-03-25T17:03:56.960Z,3.75
2019-03-25T17:06:29.913Z,3.30
2019-03-25T17:09:02.899Z,3.30
2019-03-25T17:11:36.874Z,4.00
2019-03-25T17:14:09.508Z,3.50
2019-03-25T17:16:41.819Z,4.10
2019-03-25T17:19:16.139Z,4.43
2019-03-25T17:21:57.665Z,3.60
2019-03-25T17:24:24.674Z,4.00
2019-03-25T17:26:59.071Z,4.43
2019-03-25T17:29:31.188Z,5.27
2019-03-25T17:32:05.070Z,4.45
2019-03-25T17:34:38.234Z,4.30
2019-03-25T17:37:13.427Z,4.13
2019-03-25T17:39:48.629Z,4.60
2019-03-25T17:42:21.216Z,4.70
2019-03-25T17:44:55.309Z,4.63
2019-03-25T17:47:30.760Z,3.92
2019-03-25T17:50:04.346Z,3.50
2019-03-25T17:52:39.025Z,3.40
2019-03-25T17:55:13.080Z,3.97
2019-03-25T17:57:46.110Z,4.43
2019-03-25T18:00:36.118Z,5.80
2019-03-25T18:03:11.219Z,6.03
2019-03-25T18:05:45.276Z,6.07
2019-03-25T18:08:17.896Z,6.47
2019-03-25T18:10:51.676Z,4.77
2019-03-25T18:13:24.299Z,4.67
2019-03-25T18:15:57.288Z,6.05
2019-03-25T18:18:30.229Z,4.57
2019-03-25T18:21:03.166Z,5.50
2019-03-25T18:23:36.265Z,5.97
2019-03-25T18:26:09.576Z,5.40
2019-03-25T18:28:43.582Z,6.23
2019-03-25T18:31:18.160Z,5.87
2019-03-25T18:33:51.261Z,6.90
2019-03-25T18:36:24.366Z,7.50
2019-03-25T18:38:57.755Z,6.10
2019-03-25T18:41:30.356Z,6.93
2019-03-25T18:44:02.291Z,7.47
2019-03-25T18:46:35.751Z,8.33
2019-03-25T18:49:09.551Z,8.77
2019-03-25T18:51:45.458Z,7.80
2019-03-25T18:54:20.500Z,7.53
2019-03-25T18:56:57.754Z,8.20
2019-03-25T18:59:32.400Z,7.40
2019-03-25T19:02:11.456Z,5.80
2019-03-25T19:04:44.755Z,6.27
2019-03-25T19:07:27.520Z,6.40
2019-03-25T19:10:01.965Z,5.67
2019-03-25T19:12:37.612Z,6.07
2019-03-25T19:15:09.871Z,6.20
2019-03-25T19:17:47.074Z,6.37
2019-03-25T19:20:22.405Z,6.80
2019-03-25T19:22:59.793Z,5.90
2019-03-25T19:25:50.213Z,6.00
2019-03-25T19:28:42.248Z,6.67
2019-03-25T19:31:18.734Z,5.50
2019-03-25T19:34:00.043Z,5.50
2019-03-25T19:36:48.832Z,5.40
2019-03-25T19:39:26.183Z,5.43
2019-03-25T19:42:02.902Z,4.13
2019-03-25T19:44:40.696Z,4.37
2019-03-25T19:47:15.049Z,4.40
2019-03-25T19:49:47.016Z,4.63
2019-03-25T19:52:19.167Z,3.87
2019-03-25T19:54:58.770Z,3.40
2019-03-25T19:57:32.921Z,3.60
2019-03-25T20:00:10.144Z,3.70
2019-03-25T20:02:42.883Z,3.33
2019-03-25T20:05:18.953Z,4.00
2019-03-25T20:07:51.842Z,3.13
2019-03-25T20:10:30.965Z,4.10
2019-03-25T20:13:04.066Z,4.70
2019-03-25T20:15:46.144Z,4.60
2019-03-25T20:18:14.026Z,5.43
2019-03-25T20:20:50.526Z,5.93
2019-03-25T20:23:24.940Z,4.60
2019-03-25T20:25:57.849Z,5.00
2019-03-25T20:28:30.878Z,5.07
2019-03-25T20:31:04.985Z,5.00
2019-03-25T20:33:39.777Z,4.70
2019-03-25T20:36:13.868Z,5.10
2019-03-25T20:38:49.301Z,5.10
2019-03-25T20:41:20.159Z,5.33
2019-03-25T20:43:54.949Z,5.60
2019-03-25T20:46:27.292Z,5.37
2019-03-25T20:49:01.494Z,5.10
2019-03-25T20:51:33.995Z,5.83
2019-03-25T20:54:05.965Z,5.65
2019-03-25T20:56:39.893Z,6.00
2019-03-25T20:59:13.128Z,5.17
2019-03-25T21:01:49.621Z,4.47
2019-03-25T21:04:23.927Z,5.33
2019-03-25T21:06:59.638Z,5.80
2019-03-25T21:09:32.621Z,5.40
2019-03-25T21:12:07.741Z,5.33
2019-03-25T21:14:44.414Z,5.50
2019-03-25T21:17:18.136Z,5.33
2019-03-25T21:19:54.486Z,5.37
2019-03-25T21:22:28.193Z,5.30
2019-03-25T21:25:01.244Z,5.67
2019-03-25T21:27:34.209Z,5.67
2019-03-25T21:30:09.013Z,4.70
2019-03-25T21:32:57.262Z,5.63
2019-03-25T21:35:18.554Z,5.50
2019-03-25T21:37:53.779Z,5.70
2019-03-25T21:40:28.182Z,5.10
2019-03-25T21:43:03.049Z,4.80
2019-03-25T21:45:37.191Z,5.50
2019-03-25T21:48:10.198Z,5.57
2019-03-25T21:50:44.126Z,4.47
2019-03-25T21:53:16.202Z,4.67
2019-03-25T21:55:50.870Z,4.20
2019-03-25T21:58:25.122Z,3.67
2019-03-25T22:00:58.224Z,4.37
2019-03-25T22:03:32.654Z,3.60
2019-03-25T22:06:07.446Z,3.90
2019-03-25T22:08:40.276Z,3.23
2019-03-25T22:11:13.470Z,3.53
2019-03-25T22:13:49.846Z,3.23
2019-03-25T22:16:22.233Z,2.93
2019-03-25T22:18:55.300Z,2.43
2019-03-25T22:21:30.486Z,3.17
2019-03-25T22:24:02.396Z,2.90
2019-03-25T22:26:35.122Z,3.20
2019-03-25T22:29:08.117Z,2.70
2019-03-25T22:31:41.194Z,3.10
2019-03-25T22:34:15.524Z,2.40
2019-03-25T22:36:47.376Z,2.77
2019-03-25T22:39:19.377Z,3.07
2019-03-25T22:41:51.630Z,2.63
2019-03-25T22:44:24.388Z,2.40
2019-03-25T22:46:58.012Z,2.67
2019-03-25T22:49:30.391Z,2.22
2019-03-25T22:52:02.494Z,2.57
2019-03-25T22:54:36.565Z,2.90
2019-03-25T22:57:10.103Z,3.03
2019-03-25T22:59:42.510Z,3.00
2019-03-25T23:02:15.489Z,3.40
2019-03-25T23:04:50.284Z,3.20
2019-03-25T23:07:24.546Z,3.00
2019-03-25T23:09:59.345Z,3.67
2019-03-25T23:12:33.928Z,3.97
2019-03-25T23:15:07.784Z,4.07
2019-03-25T23:17:39.567Z,4.00
2019-03-25T23:20:13.452Z,3.97
2019-03-25T23:22:48.321Z,3.90
2019-03-25T23:25:21.541Z,4.43
2019-03-25T23:27:54.648Z,4.77
2019-03-25T23:30:27.530Z,4.75
2019-03-25T23:33:01.606Z,4.57
2019-03-25T23:35:34.585Z,6.57
2019-03-25T23:38:08.543Z,5.23
2019-03-25T23:40:42.655Z,6.40
2019-03-25T23:43:15.105Z,6.03
2019-03-25T23:45:48.619Z,6.30
2019-03-25T23:48:21.591Z,5.75
2019-03-25T23:50:54.698Z,6.07
2019-03-25T23:53:27.636Z,6.17
2019-03-25T23:56:00.762Z,5.83
2019-03-25T23:58:34.631Z,6.00
